sensor_id;sensor_type;location;lat;lon;timestamp;P1;durP1;ratioP1;P2;durP2;ratioP2
68089;SDS011;54880;50.986;6.990;2023-10-08T00:00:49;12.10;;;3.13;;
68089;SDS011;54880;50.986;6.990;2023-10-08T00:03:15;9.07;;;3.63;;
68089;SDS011;54880;50.986;6.990;2023-10-08T00:05:41;11.18;;;3.38;;
68089;SDS011;54880;50.986;6.990;2023-10-08T00:08:06;10.60;;;3.00;;
68089;SDS011;54880;50.986;6.990;2023-10-08T00:10:35;9.57;;;3.13;;
68089;SDS011;54880;50.986;6.990;2023-10-08T00:13:02;9.43;;;3.23;;
68089;SDS011;54880;50.986;6.990;2023-10-08T00:15:28;15.55;;;3.33;;
68089;SDS011;54880;50.986;6.990;2023-10-08T00:17:53;11.50;;;3.47;;
68089;SDS011;54880;50.986;6.990;2023-10-08T00:20:20;11.02;;;2.97;;
68089;SDS011;54880;50.986;6.990;2023-10-08T00:22:51;9.48;;;2.92;;
68089;SDS011;54880;50.986;6.990;2023-10-08T00:25:20;11.00;;;3.13;;
68089;SDS011;54880;50.986;6.990;2023-10-08T00:27:45;12.27;;;3.20;;
68089;SDS011;54880;50.986;6.990;2023-10-08T00:30:14;11.50;;;3.07;;
68089;SDS011;54880;50.986;6.990;2023-10-08T00:32:43;12.40;;;3.65;;
68089;SDS011;54880;50.986;6.990;2023-10-08T00:35:09;8.75;;;3.60;;
68089;SDS011;54880;50.986;6.990;2023-10-08T00:37:41;11.50;;;3.20;;
68089;SDS011;54880;50.986;6.990;2023-10-08T00:40:07;9.60;;;3.10;;
68089;SDS011;54880;50.986;6.990;2023-10-08T00:42:46;10.10;;;3.00;;
68089;SDS011;54880;50.986;6.990;2023-10-08T00:45:12;10.85;;;3.40;;
68089;SDS011;54880;50.986;6.990;2023-10-08T00:47:41;10.33;;;3.10;;
68089;SDS011;54880;50.986;6.990;2023-10-08T00:50:10;8.82;;;3.00;;
68089;SDS011;54880;50.986;6.990;2023-10-08T00:52:46;9.65;;;3.60;;
68089;SDS011;54880;50.986;6.990;2023-10-08T00:55:24;13.18;;;3.38;;
68089;SDS011;54880;50.986;6.990;2023-10-08T00:57:55;11.55;;;3.72;;
68089;SDS011;54880;50.986;6.990;2023-10-08T01:00:22;8.60;;;2.83;;
68089;SDS011;54880;50.986;6.990;2023-10-08T01:02:49;9.80;;;3.08;;
68089;SDS011;54880;50.986;6.990;2023-10-08T01:05:20;8.40;;;3.10;;
68089;SDS011;54880;50.986;6.990;2023-10-08T01:07:50;12.65;;;3.42;;
68089;SDS011;54880;50.986;6.990;2023-10-08T01:10:16;12.05;;;3.30;;
68089;SDS011;54880;50.986;6.990;2023-10-08T01:12:45;9.33;;;3.00;;
68089;SDS011;54880;50.986;6.990;2023-10-08T01:15:27;8.55;;;3.20;;
68089;SDS011;54880;50.986;6.990;2023-10-08T01:17:56;10.00;;;3.33;;
68089;SDS011;54880;50.986;6.990;2023-10-08T01:20:40;9.20;;;3.33;;
68089;SDS011;54880;50.986;6.990;2023-10-08T01:23:17;12.32;;;4.10;;
68089;SDS011;54880;50.986;6.990;2023-10-08T01:25:46;11.87;;;3.53;;
68089;SDS011;54880;50.986;6.990;2023-10-08T01:28:30;9.77;;;3.47;;
68089;SDS011;54880;50.986;6.990;2023-10-08T01:30:57;9.13;;;3.20;;
68089;SDS011;54880;50.986;6.990;2023-10-08T01:33:25;12.18;;;3.80;;
68089;SDS011;54880;50.986;6.990;2023-10-08T01:35:53;8.40;;;3.00;;
68089;SDS011;54880;50.986;6.990;2023-10-08T01:38:19;11.00;;;3.65;;
68089;SDS011;54880;50.986;6.990;2023-10-08T01:40:49;9.43;;;3.75;;
68089;SDS011;54880;50.986;6.990;2023-10-08T01:43:16;10.15;;;3.13;;
68089;SDS011;54880;50.986;6.990;2023-10-08T01:45:42;10.68;;;3.13;;
68089;SDS011;54880;50.986;6.990;2023-10-08T01:48:10;8.93;;;3.20;;
68089;SDS011;54880;50.986;6.990;2023-10-08T01:50:36;10.77;;;3.03;;
68089;SDS011;54880;50.986;6.990;2023-10-08T01:53:01;10.93;;;3.60;;
68089;SDS011;54880;50.986;6.990;2023-10-08T01:55:27;11.02;;;3.30;;
68089;SDS011;54880;50.986;6.990;2023-10-08T01:57:52;11.17;;;3.40;;
68089;SDS011;54880;50.986;6.990;2023-10-08T02:00:17;8.10;;;2.90;;
68089;SDS011;54880;50.986;6.990;2023-10-08T02:02:47;10.35;;;3.05;;
68089;SDS011;54880;50.986;6.990;2023-10-08T02:05:12;11.10;;;4.30;;
68089;SDS011;54880;50.986;6.990;2023-10-08T02:07:41;12.40;;;3.47;;
68089;SDS011;54880;50.986;6.990;2023-10-08T02:10:07;9.90;;;2.80;;
68089;SDS011;54880;50.986;6.990;2023-10-08T02:12:32;10.63;;;3.00;;
68089;SDS011;54880;50.986;6.990;2023-10-08T02:14:57;9.00;;;3.30;;
68089;SDS011;54880;50.986;6.990;2023-10-08T02:17:23;9.20;;;3.30;;
68089;SDS011;54880;50.986;6.990;2023-10-08T02:19:48;9.67;;;3.10;;
68089;SDS011;54880;50.986;6.990;2023-10-08T02:22:13;10.77;;;3.40;;
68089;SDS011;54880;50.986;6.990;2023-10-08T02:24:39;10.70;;;3.20;;
68089;SDS011;54880;50.986;6.990;2023-10-08T02:27:05;8.82;;;3.30;;
68089;SDS011;54880;50.986;6.990;2023-10-08T02:29:31;9.30;;;3.38;;
68089;SDS011;54880;50.986;6.990;2023-10-08T02:31:57;9.63;;;3.20;;
68089;SDS011;54880;50.986;6.990;2023-10-08T02:34:22;9.27;;;3.00;;
68089;SDS011;54880;50.986;6.990;2023-10-08T02:36:49;9.32;;;2.95;;
68089;SDS011;54880;50.986;6.990;2023-10-08T02:39:15;11.57;;;3.13;;
68089;SDS011;54880;50.986;6.990;2023-10-08T02:41:47;8.63;;;3.70;;
68089;SDS011;54880;50.986;6.990;2023-10-08T02:44:12;9.45;;;3.30;;
68089;SDS011;54880;50.986;6.990;2023-10-08T02:46:41;11.30;;;2.95;;
68089;SDS011;54880;50.986;6.990;2023-10-08T02:49:10;10.50;;;3.30;;
68089;SDS011;54880;50.986;6.990;2023-10-08T02:51:39;10.13;;;3.30;;
68089;SDS011;54880;50.986;6.990;2023-10-08T02:54:06;10.30;;;3.10;;
68089;SDS011;54880;50.986;6.990;2023-10-08T02:56:33;11.35;;;2.80;;
68089;SDS011;54880;50.986;6.990;2023-10-08T02:58:59;10.30;;;3.10;;
68089;SDS011;54880;50.986;6.990;2023-10-08T03:01:25;8.80;;;3.50;;
68089;SDS011;54880;50.986;6.990;2023-10-08T03:03:51;9.60;;;3.25;;
68089;SDS011;54880;50.986;6.990;2023-10-08T03:06:19;10.85;;;3.10;;
68089;SDS011;54880;50.986;6.990;2023-10-08T03:08:44;8.15;;;2.83;;
68089;SDS011;54880;50.986;6.990;2023-10-08T03:11:12;9.30;;;3.03;;
68089;SDS011;54880;50.986;6.990;2023-10-08T03:13:44;9.77;;;3.55;;
68089;SDS011;54880;50.986;6.990;2023-10-08T03:16:13;10.70;;;3.55;;
68089;SDS011;54880;50.986;6.990;2023-10-08T03:18:39;9.45;;;3.15;;
68089;SDS011;54880;50.986;6.990;2023-10-08T03:21:10;10.13;;;3.28;;
68089;SDS011;54880;50.986;6.990;2023-10-08T03:24:07;10.80;;;3.43;;
68089;SDS011;54880;50.986;6.990;2023-10-08T03:26:54;13.05;;;3.20;;
68089;SDS011;54880;50.986;6.990;2023-10-08T03:29:31;12.95;;;3.78;;
68089;SDS011;54880;50.986;6.990;2023-10-08T03:31:57;10.68;;;3.25;;
68089;SDS011;54880;50.986;6.990;2023-10-08T03:34:22;8.87;;;3.27;;
68089;SDS011;54880;50.986;6.990;2023-10-08T03:36:54;9.55;;;3.00;;
68089;SDS011;54880;50.986;6.990;2023-10-08T03:39:30;10.13;;;3.13;;
68089;SDS011;54880;50.986;6.990;2023-10-08T03:42:18;10.25;;;3.13;;
68089;SDS011;54880;50.986;6.990;2023-10-08T03:44:45;10.57;;;3.50;;
68089;SDS011;54880;50.986;6.990;2023-10-08T03:47:16;12.80;;;3.50;;
68089;SDS011;54880;50.986;6.990;2023-10-08T03:49:43;10.95;;;3.50;;
68089;SDS011;54880;50.986;6.990;2023-10-08T03:52:11;8.87;;;3.17;;
68089;SDS011;54880;50.986;6.990;2023-10-08T03:54:36;9.38;;;3.00;;
68089;SDS011;54880;50.986;6.990;2023-10-08T03:57:07;9.70;;;3.50;;
68089;SDS011;54880;50.986;6.990;2023-10-08T03:59:39;9.43;;;3.30;;
68089;SDS011;54880;50.986;6.990;2023-10-08T04:02:06;10.48;;;3.30;;
68089;SDS011;54880;50.986;6.990;2023-10-08T04:04:57;10.27;;;3.15;;
68089;SDS011;54880;50.986;6.990;2023-10-08T04:07:23;10.90;;;3.10;;
68089;SDS011;54880;50.986;6.990;2023-10-08T04:09:51;9.13;;;2.92;;
68089;SDS011;54880;50.986;6.990;2023-10-08T04:12:30;12.18;;;3.10;;
68089;SDS011;54880;50.986;6.990;2023-10-08T04:15:00;12.98;;;3.55;;
68089;SDS011;54880;50.986;6.990;2023-10-08T04:17:25;8.90;;;2.97;;
68089;SDS011;54880;50.986;6.990;2023-10-08T04:19:50;10.57;;;3.67;;
68089;SDS011;54880;50.986;6.990;2023-10-08T04:22:16;13.50;;;3.53;;
68089;SDS011;54880;50.986;6.990;2023-10-08T04:24:43;12.37;;;3.57;;
68089;SDS011;54880;50.986;6.990;2023-10-08T04:27:09;12.80;;;3.45;;
68089;SDS011;54880;50.986;6.990;2023-10-08T04:29:34;9.27;;;3.58;;
68089;SDS011;54880;50.986;6.990;2023-10-08T04:32:02;10.27;;;3.43;;
68089;SDS011;54880;50.986;6.990;2023-10-08T04:34:37;10.77;;;3.63;;
68089;SDS011;54880;50.986;6.990;2023-10-08T04:37:02;10.63;;;3.10;;
68089;SDS011;54880;50.986;6.990;2023-10-08T04:39:29;10.57;;;2.92;;
68089;SDS011;54880;50.986;6.990;2023-10-08T04:42:01;9.13;;;3.70;;
68089;SDS011;54880;50.986;6.990;2023-10-08T04:44:38;13.63;;;3.60;;
68089;SDS011;54880;50.986;6.990;2023-10-08T04:47:04;11.13;;;3.40;;
68089;SDS011;54880;50.986;6.990;2023-10-08T04:49:30;9.43;;;3.00;;
68089;SDS011;54880;50.986;6.990;2023-10-08T04:51:59;11.02;;;3.28;;
68089;SDS011;54880;50.986;6.990;2023-10-08T04:56:55;12.32;;;3.60;;
68089;SDS011;54880;50.986;6.990;2023-10-08T04:59:22;10.88;;;3.20;;
68089;SDS011;54880;50.986;6.990;2023-10-08T05:01:48;8.47;;;3.33;;
68089;SDS011;54880;50.986;6.990;2023-10-08T05:04:14;10.47;;;3.70;;
68089;SDS011;54880;50.986;6.990;2023-10-08T05:06:49;11.35;;;3.30;;
68089;SDS011;54880;50.986;6.990;2023-10-08T05:09:26;12.68;;;3.42;;
68089;SDS011;54880;50.986;6.990;2023-10-08T05:12:04;12.95;;;3.97;;
68089;SDS011;54880;50.986;6.990;2023-10-08T05:14:53;8.82;;;3.30;;
68089;SDS011;54880;50.986;6.990;2023-10-08T05:17:45;7.83;;;3.27;;
68089;SDS011;54880;50.986;6.990;2023-10-08T05:20:21;9.43;;;3.55;;
68089;SDS011;54880;50.986;6.990;2023-10-08T05:23:23;9.68;;;3.65;;
68089;SDS011;54880;50.986;6.990;2023-10-08T05:25:55;10.40;;;3.63;;
68089;SDS011;54880;50.986;6.990;2023-10-08T05:28:33;11.02;;;3.92;;
68089;SDS011;54880;50.986;6.990;2023-10-08T05:31:08;13.93;;;3.33;;
68089;SDS011;54880;50.986;6.990;2023-10-08T05:33:39;11.82;;;3.40;;
68089;SDS011;54880;50.986;6.990;2023-10-08T05:36:23;10.25;;;3.78;;
68089;SDS011;54880;50.986;6.990;2023-10-08T05:39:14;10.63;;;3.67;;
68089;SDS011;54880;50.986;6.990;2023-10-08T05:41:49;14.15;;;3.80;;
68089;SDS011;54880;50.986;6.990;2023-10-08T05:44:17;10.47;;;3.60;;
68089;SDS011;54880;50.986;6.990;2023-10-08T05:46:43;14.50;;;3.88;;
68089;SDS011;54880;50.986;6.990;2023-10-08T05:49:21;13.43;;;4.50;;
68089;SDS011;54880;50.986;6.990;2023-10-08T05:51:56;12.57;;;4.00;;
68089;SDS011;54880;50.986;6.990;2023-10-08T05:54:21;11.95;;;4.15;;
68089;SDS011;54880;50.986;6.990;2023-10-08T05:56:57;10.80;;;3.78;;
68089;SDS011;54880;50.986;6.990;2023-10-08T05:59:41;12.07;;;3.80;;
68089;SDS011;54880;50.986;6.990;2023-10-08T06:02:23;11.45;;;4.10;;
68089;SDS011;54880;50.986;6.990;2023-10-08T06:05:11;10.95;;;3.75;;
68089;SDS011;54880;50.986;6.990;2023-10-08T06:07:58;11.90;;;4.03;;
68089;SDS011;54880;50.986;6.990;2023-10-08T06:10:36;10.50;;;3.53;;
68089;SDS011;54880;50.986;6.990;2023-10-08T06:13:05;12.27;;;4.20;;
68089;SDS011;54880;50.986;6.990;2023-10-08T06:15:56;10.93;;;4.03;;
68089;SDS011;54880;50.986;6.990;2023-10-08T06:18:22;12.70;;;3.77;;
68089;SDS011;54880;50.986;6.990;2023-10-08T06:20:54;10.10;;;3.38;;
68089;SDS011;54880;50.986;6.990;2023-10-08T06:23:19;14.23;;;4.07;;
68089;SDS011;54880;50.986;6.990;2023-10-08T06:25:46;11.30;;;4.10;;
68089;SDS011;54880;50.986;6.990;2023-10-08T06:28:12;13.40;;;4.05;;
68089;SDS011;54880;50.986;6.990;2023-10-08T06:30:37;9.90;;;4.47;;
68089;SDS011;54880;50.986;6.990;2023-10-08T06:33:06;10.93;;;3.65;;
68089;SDS011;54880;50.986;6.990;2023-10-08T06:35:31;10.13;;;3.45;;
68089;SDS011;54880;50.986;6.990;2023-10-08T06:37:58;9.45;;;3.53;;
68089;SDS011;54880;50.986;6.990;2023-10-08T06:40:24;9.57;;;3.22;;
68089;SDS011;54880;50.986;6.990;2023-10-08T06:43:02;12.68;;;3.35;;
68089;SDS011;54880;50.986;6.990;2023-10-08T06:45:42;9.57;;;3.50;;
68089;SDS011;54880;50.986;6.990;2023-10-08T06:48:08;10.73;;;3.33;;
68089;SDS011;54880;50.986;6.990;2023-10-08T06:50:34;10.38;;;3.67;;
68089;SDS011;54880;50.986;6.990;2023-10-08T06:53:03;14.00;;;3.73;;
68089;SDS011;54880;50.986;6.990;2023-10-08T06:55:33;11.05;;;4.10;;
68089;SDS011;54880;50.986;6.990;2023-10-08T06:58:00;11.40;;;3.75;;
68089;SDS011;54880;50.986;6.990;2023-10-08T07:00:25;11.27;;;3.87;;
68089;SDS011;54880;50.986;6.990;2023-10-08T07:03:12;11.20;;;4.10;;
68089;SDS011;54880;50.986;6.990;2023-10-08T07:05:40;12.30;;;3.58;;
68089;SDS011;54880;50.986;6.990;2023-10-08T07:08:09;12.63;;;3.40;;
68089;SDS011;54880;50.986;6.990;2023-10-08T07:10:38;10.00;;;3.27;;
68089;SDS011;54880;50.986;6.990;2023-10-08T07:13:04;12.48;;;3.92;;
68089;SDS011;54880;50.986;6.990;2023-10-08T07:15:32;12.93;;;4.67;;
68089;SDS011;54880;50.986;6.990;2023-10-08T07:17:57;10.95;;;3.70;;
68089;SDS011;54880;50.986;6.990;2023-10-08T07:20:33;13.93;;;3.70;;
68089;SDS011;54880;50.986;6.990;2023-10-08T07:23:04;11.43;;;4.15;;
68089;SDS011;54880;50.986;6.990;2023-10-08T07:25:34;13.03;;;4.37;;
68089;SDS011;54880;50.986;6.990;2023-10-08T07:28:02;10.93;;;3.42;;
68089;SDS011;54880;50.986;6.990;2023-10-08T07:30:35;11.68;;;3.95;;
68089;SDS011;54880;50.986;6.990;2023-10-08T07:33:03;12.82;;;3.95;;
68089;SDS011;54880;50.986;6.990;2023-10-08T07:35:29;12.83;;;4.43;;
68089;SDS011;54880;50.986;6.990;2023-10-08T07:37:55;10.82;;;3.92;;
68089;SDS011;54880;50.986;6.990;2023-10-08T07:40:20;10.80;;;4.00;;
68089;SDS011;54880;50.986;6.990;2023-10-08T07:42:46;10.00;;;3.60;;
68089;SDS011;54880;50.986;6.990;2023-10-08T07:45:16;12.82;;;3.67;;
68089;SDS011;54880;50.986;6.990;2023-10-08T07:47:42;14.13;;;4.17;;
68089;SDS011;54880;50.986;6.990;2023-10-08T07:50:08;11.70;;;3.70;;
68089;SDS011;54880;50.986;6.990;2023-10-08T07:52:36;14.10;;;4.40;;
68089;SDS011;54880;50.986;6.990;2023-10-08T07:55:02;13.10;;;3.80;;
68089;SDS011;54880;50.986;6.990;2023-10-08T07:57:29;12.00;;;4.37;;
68089;SDS011;54880;50.986;6.990;2023-10-08T07:59:56;10.82;;;3.88;;
68089;SDS011;54880;50.986;6.990;2023-10-08T08:02:26;12.25;;;4.15;;
68089;SDS011;54880;50.986;6.990;2023-10-08T08:04:52;12.63;;;4.07;;
68089;SDS011;54880;50.986;6.990;2023-10-08T08:07:18;11.83;;;4.17;;
68089;SDS011;54880;50.986;6.990;2023-10-08T08:09:47;13.40;;;4.70;;
68089;SDS011;54880;50.986;6.990;2023-10-08T08:12:16;13.02;;;4.70;;
68089;SDS011;54880;50.986;6.990;2023-10-08T08:14:41;14.17;;;4.23;;
68089;SDS011;54880;50.986;6.990;2023-10-08T08:17:07;14.03;;;4.50;;
68089;SDS011;54880;50.986;6.990;2023-10-08T08:19:41;12.45;;;3.88;;
68089;SDS011;54880;50.986;6.990;2023-10-08T08:22:07;13.02;;;4.43;;
68089;SDS011;54880;50.986;6.990;2023-10-08T08:24:32;13.00;;;4.27;;
68089;SDS011;54880;50.986;6.990;2023-10-08T08:27:01;9.98;;;3.88;;
68089;SDS011;54880;50.986;6.990;2023-10-08T08:29:32;12.15;;;4.10;;
68089;SDS011;54880;50.986;6.990;2023-10-08T08:32:09;12.70;;;4.78;;
68089;SDS011;54880;50.986;6.990;2023-10-08T08:34:35;11.47;;;4.30;;
68089;SDS011;54880;50.986;6.990;2023-10-08T08:37:01;13.52;;;4.47;;
68089;SDS011;54880;50.986;6.990;2023-10-08T08:39:26;10.37;;;4.10;;
68089;SDS011;54880;50.986;6.990;2023-10-08T08:42:00;11.80;;;3.78;;
68089;SDS011;54880;50.986;6.990;2023-10-08T08:44:30;13.23;;;4.07;;
68089;SDS011;54880;50.986;6.990;2023-10-08T08:46:57;12.50;;;4.10;;
68089;SDS011;54880;50.986;6.990;2023-10-08T08:49:23;12.68;;;3.92;;
68089;SDS011;54880;50.986;6.990;2023-10-08T08:51:49;10.37;;;4.27;;
68089;SDS011;54880;50.986;6.990;2023-10-08T08:54:18;13.68;;;4.18;;
68089;SDS011;54880;50.986;6.990;2023-10-08T08:56:44;12.98;;;4.20;;
68089;SDS011;54880;50.986;6.990;2023-10-08T08:59:10;12.43;;;4.03;;
68089;SDS011;54880;50.986;6.990;2023-10-08T09:01:41;12.85;;;3.85;;
68089;SDS011;54880;50.986;6.990;2023-10-08T09:04:07;15.50;;;4.97;;
68089;SDS011;54880;50.986;6.990;2023-10-08T09:06:33;12.80;;;4.57;;
68089;SDS011;54880;50.986;6.990;2023-10-08T09:09:02;13.63;;;4.72;;
68089;SDS011;54880;50.986;6.990;2023-10-08T09:11:46;11.02;;;3.78;;
68089;SDS011;54880;50.986;6.990;2023-10-08T09:14:12;11.83;;;4.33;;
68089;SDS011;54880;50.986;6.990;2023-10-08T09:16:37;15.07;;;4.40;;
68089;SDS011;54880;50.986;6.990;2023-10-08T09:19:02;13.90;;;5.33;;
68089;SDS011;54880;50.986;6.990;2023-10-08T09:21:29;12.85;;;4.53;;
68089;SDS011;54880;50.986;6.990;2023-10-08T09:23:55;15.57;;;4.28;;
68089;SDS011;54880;50.986;6.990;2023-10-08T09:26:24;14.52;;;5.10;;
68089;SDS011;54880;50.986;6.990;2023-10-08T09:28:50;13.20;;;4.20;;
68089;SDS011;54880;50.986;6.990;2023-10-08T09:31:16;14.13;;;4.40;;
68089;SDS011;54880;50.986;6.990;2023-10-08T09:33:43;13.63;;;4.75;;
68089;SDS011;54880;50.986;6.990;2023-10-08T09:36:09;16.27;;;4.78;;
68089;SDS011;54880;50.986;6.990;2023-10-08T09:38:36;14.03;;;4.80;;
68089;SDS011;54880;50.986;6.990;2023-10-08T09:41:02;18.80;;;5.60;;
68089;SDS011;54880;50.986;6.990;2023-10-08T09:43:28;14.20;;;4.57;;
68089;SDS011;54880;50.986;6.990;2023-10-08T09:45:55;15.10;;;4.63;;
68089;SDS011;54880;50.986;6.990;2023-10-08T09:48:22;16.23;;;5.45;;
68089;SDS011;54880;50.986;6.990;2023-10-08T09:50:50;20.75;;;5.28;;
68089;SDS011;54880;50.986;6.990;2023-10-08T09:53:17;19.02;;;5.20;;
68089;SDS011;54880;50.986;6.990;2023-10-08T09:55:49;15.75;;;5.20;;
68089;SDS011;54880;50.986;6.990;2023-10-08T09:58:19;22.17;;;5.87;;
68089;SDS011;54880;50.986;6.990;2023-10-08T10:00:45;21.77;;;6.32;;
68089;SDS011;54880;50.986;6.990;2023-10-08T10:03:13;23.05;;;5.82;;
68089;SDS011;54880;50.986;6.990;2023-10-08T10:05:39;31.73;;;6.90;;
68089;SDS011;54880;50.986;6.990;2023-10-08T10:08:05;23.25;;;6.95;;
68089;SDS011;54880;50.986;6.990;2023-10-08T10:10:31;20.83;;;5.83;;
68089;SDS011;54880;50.986;6.990;2023-10-08T10:13:00;19.27;;;6.32;;
68089;SDS011;54880;50.986;6.990;2023-10-08T10:15:25;20.80;;;6.18;;
68089;SDS011;54880;50.986;6.990;2023-10-08T10:17:51;17.43;;;6.13;;
68089;SDS011;54880;50.986;6.990;2023-10-08T10:20:16;25.77;;;6.20;;
68089;SDS011;54880;50.986;6.990;2023-10-08T10:22:41;18.97;;;6.10;;
68089;SDS011;54880;50.986;6.990;2023-10-08T10:25:10;19.27;;;6.15;;
68089;SDS011;54880;50.986;6.990;2023-10-08T10:30:24;17.63;;;5.88;;
68089;SDS011;54880;50.986;6.990;2023-10-08T10:32:52;20.87;;;7.10;;
68089;SDS011;54880;50.986;6.990;2023-10-08T10:35:17;21.92;;;6.25;;
68089;SDS011;54880;50.986;6.990;2023-10-08T10:37:44;24.63;;;6.82;;
68089;SDS011;54880;50.986;6.990;2023-10-08T10:40:19;14.50;;;5.97;;
68089;SDS011;54880;50.986;6.990;2023-10-08T10:42:57;21.65;;;6.38;;
68089;SDS011;54880;50.986;6.990;2023-10-08T10:45:22;17.85;;;6.32;;
68089;SDS011;54880;50.986;6.990;2023-10-08T10:48:07;19.90;;;6.90;;
68089;SDS011;54880;50.986;6.990;2023-10-08T10:50:48;22.55;;;7.10;;
68089;SDS011;54880;50.986;6.990;2023-10-08T10:53:38;23.30;;;7.00;;
68089;SDS011;54880;50.986;6.990;2023-10-08T10:56:16;19.67;;;6.82;;
68089;SDS011;54880;50.986;6.990;2023-10-08T10:59:03;16.58;;;5.43;;
68089;SDS011;54880;50.986;6.990;2023-10-08T11:01:54;22.70;;;7.00;;
68089;SDS011;54880;50.986;6.990;2023-10-08T11:04:46;20.83;;;7.18;;
68089;SDS011;54880;50.986;6.990;2023-10-08T11:07:15;20.80;;;6.90;;
68089;SDS011;54880;50.986;6.990;2023-10-08T11:09:43;22.05;;;6.32;;
68089;SDS011;54880;50.986;6.990;2023-10-08T11:12:09;20.65;;;6.72;;
68089;SDS011;54880;50.986;6.990;2023-10-08T11:14:41;20.43;;;6.70;;
68089;SDS011;54880;50.986;6.990;2023-10-08T11:17:12;20.05;;;6.40;;
68089;SDS011;54880;50.986;6.990;2023-10-08T11:19:40;19.98;;;6.93;;
68089;SDS011;54880;50.986;6.990;2023-10-08T11:22:07;23.58;;;6.78;;
68089;SDS011;54880;50.986;6.990;2023-10-08T11:24:40;21.10;;;7.13;;
68089;SDS011;54880;50.986;6.990;2023-10-08T11:27:07;20.60;;;6.93;;
68089;SDS011;54880;50.986;6.990;2023-10-08T11:29:48;20.00;;;6.20;;
68089;SDS011;54880;50.986;6.990;2023-10-08T11:32:16;16.15;;;5.95;;
68089;SDS011;54880;50.986;6.990;2023-10-08T11:34:54;21.33;;;6.90;;
68089;SDS011;54880;50.986;6.990;2023-10-08T11:37:31;17.58;;;6.68;;
68089;SDS011;54880;50.986;6.990;2023-10-08T11:40:00;18.70;;;6.63;;
68089;SDS011;54880;50.986;6.990;2023-10-08T11:42:34;19.05;;;6.63;;
68089;SDS011;54880;50.986;6.990;2023-10-08T11:44:59;21.67;;;7.53;;
68089;SDS011;54880;50.986;6.990;2023-10-08T11:47:25;23.17;;;6.60;;
68089;SDS011;54880;50.986;6.990;2023-10-08T11:49:56;18.02;;;6.60;;
68089;SDS011;54880;50.986;6.990;2023-10-08T11:52:35;19.50;;;6.33;;
68089;SDS011;54880;50.986;6.990;2023-10-08T11:55:01;17.73;;;6.20;;
68089;SDS011;54880;50.986;6.990;2023-10-08T11:57:26;19.10;;;7.07;;
68089;SDS011;54880;50.986;6.990;2023-10-08T11:59:52;20.23;;;6.17;;
68089;SDS011;54880;50.986;6.990;2023-10-08T12:02:19;19.15;;;6.65;;
68089;SDS011;54880;50.986;6.990;2023-10-08T12:04:45;19.67;;;7.50;;
68089;SDS011;54880;50.986;6.990;2023-10-08T12:07:12;21.73;;;7.25;;
68089;SDS011;54880;50.986;6.990;2023-10-08T12:09:42;23.23;;;7.65;;
68089;SDS011;54880;50.986;6.990;2023-10-08T12:12:07;20.37;;;6.63;;
68089;SDS011;54880;50.986;6.990;2023-10-08T12:14:37;17.58;;;5.93;;
68089;SDS011;54880;50.986;6.990;2023-10-08T12:17:03;19.52;;;7.07;;
68089;SDS011;54880;50.986;6.990;2023-10-08T12:19:36;22.70;;;7.18;;
68089;SDS011;54880;50.986;6.990;2023-10-08T12:22:01;21.93;;;7.13;;
68089;SDS011;54880;50.986;6.990;2023-10-08T12:24:28;23.60;;;7.38;;
68089;SDS011;54880;50.986;6.990;2023-10-08T12:26:53;26.47;;;7.10;;
68089;SDS011;54880;50.986;6.990;2023-10-08T12:29:18;22.40;;;7.03;;
68089;SDS011;54880;50.986;6.990;2023-10-08T12:31:44;21.20;;;7.00;;
68089;SDS011;54880;50.986;6.990;2023-10-08T12:34:12;18.85;;;6.82;;
68089;SDS011;54880;50.986;6.990;2023-10-08T12:36:38;23.15;;;7.07;;
68089;SDS011;54880;50.986;6.990;2023-10-08T12:39:03;21.30;;;7.03;;
68089;SDS011;54880;50.986;6.990;2023-10-08T12:41:39;20.93;;;7.03;;
68089;SDS011;54880;50.986;6.990;2023-10-08T12:44:05;20.30;;;6.72;;
68089;SDS011;54880;50.986;6.990;2023-10-08T12:46:33;18.77;;;7.00;;
68089;SDS011;54880;50.986;6.990;2023-10-08T12:48:59;20.45;;;7.07;;
68089;SDS011;54880;50.986;6.990;2023-10-08T12:51:26;21.33;;;7.82;;
68089;SDS011;54880;50.986;6.990;2023-10-08T12:53:56;18.70;;;6.82;;
68089;SDS011;54880;50.986;6.990;2023-10-08T12:56:45;22.67;;;7.72;;
68089;SDS011;54880;50.986;6.990;2023-10-08T12:59:13;22.10;;;7.90;;
68089;SDS011;54880;50.986;6.990;2023-10-08T13:01:48;23.20;;;7.50;;
68089;SDS011;54880;50.986;6.990;2023-10-08T13:04:19;23.48;;;7.15;;
68089;SDS011;54880;50.986;6.990;2023-10-08T13:06:57;20.27;;;7.38;;
68089;SDS011;54880;50.986;6.990;2023-10-08T13:09:25;18.27;;;6.68;;
68089;SDS011;54880;50.986;6.990;2023-10-08T13:11:51;18.37;;;7.60;;
68089;SDS011;54880;50.986;6.990;2023-10-08T13:14:16;17.25;;;6.70;;
68089;SDS011;54880;50.986;6.990;2023-10-08T13:16:41;23.43;;;7.53;;
68089;SDS011;54880;50.986;6.990;2023-10-08T13:19:09;16.02;;;6.32;;
68089;SDS011;54880;50.986;6.990;2023-10-08T13:21:35;19.93;;;7.60;;
68089;SDS011;54880;50.986;6.990;2023-10-08T13:24:02;21.87;;;7.77;;
68089;SDS011;54880;50.986;6.990;2023-10-08T13:26:28;22.30;;;8.43;;
68089;SDS011;54880;50.986;6.990;2023-10-08T13:28:59;15.75;;;7.57;;
68089;SDS011;54880;50.986;6.990;2023-10-08T13:31:24;21.88;;;7.75;;
68089;SDS011;54880;50.986;6.990;2023-10-08T13:33:50;23.42;;;8.27;;
68089;SDS011;54880;50.986;6.990;2023-10-08T13:36:17;20.53;;;7.63;;
68089;SDS011;54880;50.986;6.990;2023-10-08T13:38:42;19.08;;;7.50;;
68089;SDS011;54880;50.986;6.990;2023-10-08T13:41:08;18.90;;;7.67;;
68089;SDS011;54880;50.986;6.990;2023-10-08T13:43:46;22.05;;;7.97;;
68089;SDS011;54880;50.986;6.990;2023-10-08T13:46:12;20.27;;;8.45;;
68089;SDS011;54880;50.986;6.990;2023-10-08T13:48:38;23.10;;;8.68;;
68089;SDS011;54880;50.986;6.990;2023-10-08T13:51:05;25.30;;;8.80;;
68089;SDS011;54880;50.986;6.990;2023-10-08T13:53:33;21.52;;;8.27;;
68089;SDS011;54880;50.986;6.990;2023-10-08T13:56:01;24.50;;;8.80;;
68089;SDS011;54880;50.986;6.990;2023-10-08T13:58:27;22.67;;;8.30;;
68089;SDS011;54880;50.986;6.990;2023-10-08T14:00:55;22.33;;;8.52;;
68089;SDS011;54880;50.986;6.990;2023-10-08T14:03:20;24.13;;;8.60;;
68089;SDS011;54880;50.986;6.990;2023-10-08T14:05:47;24.45;;;9.00;;
68089;SDS011;54880;50.986;6.990;2023-10-08T14:08:15;21.05;;;8.13;;
68089;SDS011;54880;50.986;6.990;2023-10-08T14:10:40;20.50;;;7.30;;
68089;SDS011;54880;50.986;6.990;2023-10-08T14:13:08;21.25;;;8.40;;
68089;SDS011;54880;50.986;6.990;2023-10-08T14:15:33;26.10;;;8.13;;
68089;SDS011;54880;50.986;6.990;2023-10-08T14:18:01;25.45;;;8.35;;
68089;SDS011;54880;50.986;6.990;2023-10-08T14:20:33;20.80;;;8.45;;
68089;SDS011;54880;50.986;6.990;2023-10-08T14:22:58;21.70;;;7.63;;
68089;SDS011;54880;50.986;6.990;2023-10-08T14:25:27;23.65;;;8.27;;
68089;SDS011;54880;50.986;6.990;2023-10-08T14:27:54;18.85;;;7.28;;
68089;SDS011;54880;50.986;6.990;2023-10-08T14:30:20;20.45;;;7.93;;
68089;SDS011;54880;50.986;6.990;2023-10-08T14:32:49;21.92;;;8.00;;
68089;SDS011;54880;50.986;6.990;2023-10-08T14:35:14;19.90;;;7.67;;
68089;SDS011;54880;50.986;6.990;2023-10-08T14:37:59;21.73;;;9.10;;
68089;SDS011;54880;50.986;6.990;2023-10-08T14:40:43;28.23;;;8.68;;
68089;SDS011;54880;50.986;6.990;2023-10-08T14:43:27;21.50;;;8.40;;
68089;SDS011;54880;50.986;6.990;2023-10-08T14:45:56;22.20;;;8.27;;
68089;SDS011;54880;50.986;6.990;2023-10-08T14:48:22;21.50;;;7.97;;
68089;SDS011;54880;50.986;6.990;2023-10-08T14:50:48;26.40;;;8.90;;
68089;SDS011;54880;50.986;6.990;2023-10-08T14:53:14;22.30;;;8.47;;
68089;SDS011;54880;50.986;6.990;2023-10-08T14:55:39;23.05;;;8.35;;